sensor_id;sensor_type;location;lat;lon;timestamp;temperature;humidity
42965;DHT22;28604;51.204;22.552;2023-05-17T00:02:21;16.70;90.00
42965;DHT22;28604;51.204;22.552;2023-05-17T00:04:46;16.70;90.20
42965;DHT22;28604;51.204;22.552;2023-05-17T00:07:12;16.70;89.50
42965;DHT22;28604;51.204;22.552;2023-05-17T00:09:38;16.60;89.60
42965;DHT22;28604;51.204;22.552;2023-05-17T00:12:04;16.60;89.80
42965;DHT22;28604;51.204;22.552;2023-05-17T00:14:30;16.50;90.00
42965;DHT22;28604;51.204;22.552;2023-05-17T00:16:56;16.60;88.70
42965;DHT22;28604;51.204;22.552;2023-05-17T00:19:22;16.60;87.90
42965;DHT22;28604;51.204;22.552;2023-05-17T00:21:48;16.50;90.00
42965;DHT22;28604;51.204;22.552;2023-05-17T00:24:14;16.50;89.00
42965;DHT22;28604;51.204;22.552;2023-05-17T00:26:40;16.60;89.00
42965;DHT22;28604;51.204;22.552;2023-05-17T00:29:06;16.50;89.10
42965;DHT22;28604;51.204;22.552;2023-05-17T00:31:33;16.50;88.40
42965;DHT22;28604;51.204;22.552;2023-05-17T00:33:58;16.50;88.20
42965;DHT22;28604;51.204;22.552;2023-05-17T00:36:24;16.50;87.90
42965;DHT22;28604;51.204;22.552;2023-05-17T00:38:50;16.50;88.60
42965;DHT22;28604;51.204;22.552;2023-05-17T00:41:16;16.50;89.40
42965;DHT22;28604;51.204;22.552;2023-05-17T00:43:43;16.50;88.40
42965;DHT22;28604;51.204;22.552;2023-05-17T00:46:09;16.40;88.90
42965;DHT22;28604;51.204;22.552;2023-05-17T00:48:34;16.50;89.60
42965;DHT22;28604;51.204;22.552;2023-05-17T00:51:01;16.40;89.50
42965;DHT22;28604;51.204;22.552;2023-05-17T00:53:26;16.40;89.90
42965;DHT22;28604;51.204;22.552;2023-05-17T00:55:54;16.40;89.60
42965;DHT22;28604;51.204;22.552;2023-05-17T00:58:21;16.40;89.50
42965;DHT22;28604;51.204;22.552;2023-05-17T01:00:49;16.40;90.00
42965;DHT22;28604;51.204;22.552;2023-05-17T01:03:15;16.40;89.20
42965;DHT22;28604;51.204;22.552;2023-05-17T01:05:41;16.30;90.00
42965;DHT22;28604;51.204;22.552;2023-05-17T01:08:07;16.30;90.00
42965;DHT22;28604;51.204;22.552;2023-05-17T01:10:56;16.30;89.90
42965;DHT22;28604;51.204;22.552;2023-05-17T01:13:47;16.30;90.20
42965;DHT22;28604;51.204;22.552;2023-05-17T01:16:54;16.30;90.30
42965;DHT22;28604;51.204;22.552;2023-05-17T01:24:58;16.20;90.10
42965;DHT22;28604;51.204;22.552;2023-05-17T01:27:27;16.20;90.60
42965;DHT22;28604;51.204;22.552;2023-05-17T01:29:55;16.20;90.80
42965;DHT22;28604;51.204;22.552;2023-05-17T01:32:24;16.20;90.50
42965;DHT22;28604;51.204;22.552;2023-05-17T01:34:51;16.10;90.40
42965;DHT22;28604;51.204;22.552;2023-05-17T01:37:17;16.10;90.50
42965;DHT22;28604;51.204;22.552;2023-05-17T01:39:43;16.10;90.60
42965;DHT22;28604;51.204;22.552;2023-05-17T01:42:13;16.10;90.50
42965;DHT22;28604;51.204;22.552;2023-05-17T01:45:08;16.00;90.90
42965;DHT22;28604;51.204;22.552;2023-05-17T01:47:42;16.00;90.80
42965;DHT22;28604;51.204;22.552;2023-05-17T01:50:11;16.00;90.90
42965;DHT22;28604;51.204;22.552;2023-05-17T01:58:00;15.90;91.20
42965;DHT22;28604;51.204;22.552;2023-05-17T02:03:11;15.90;91.10
42965;DHT22;28604;51.204;22.552;2023-05-17T02:05:37;15.90;90.90
42965;DHT22;28604;51.204;22.552;2023-05-17T02:08:04;15.90;91.00
42965;DHT22;28604;51.204;22.552;2023-05-17T02:10:30;15.80;91.00
42965;DHT22;28604;51.204;22.552;2023-05-17T02:12:56;15.80;90.80
42965;DHT22;28604;51.204;22.552;2023-05-17T02:15:22;15.90;90.80
42965;DHT22;28604;51.204;22.552;2023-05-17T02:17:48;15.80;90.90
42965;DHT22;28604;51.204;22.552;2023-05-17T02:20:14;15.80;90.90
42965;DHT22;28604;51.204;22.552;2023-05-17T02:22:40;15.80;91.40
42965;DHT22;28604;51.204;22.552;2023-05-17T02:25:06;15.70;90.90
42965;DHT22;28604;51.204;22.552;2023-05-17T02:27:33;15.80;91.30
42965;DHT22;28604;51.204;22.552;2023-05-17T02:29:59;15.70;91.30
42965;DHT22;28604;51.204;22.552;2023-05-17T02:32:27;15.60;91.40
42965;DHT22;28604;51.204;22.552;2023-05-17T02:34:54;15.60;91.40
42965;DHT22;28604;51.204;22.552;2023-05-17T02:37:22;15.60;91.70
42965;DHT22;28604;51.204;22.552;2023-05-17T02:39:48;15.60;91.40
42965;DHT22;28604;51.204;22.552;2023-05-17T02:42:14;15.60;91.60
42965;DHT22;28604;51.204;22.552;2023-05-17T02:44:40;15.60;91.80
42965;DHT22;28604;51.204;22.552;2023-05-17T02:47:06;15.50;91.90
42965;DHT22;28604;51.204;22.552;2023-05-17T02:49:32;15.40;91.60
42965;DHT22;28604;51.204;22.552;2023-05-17T02:51:58;15.50;91.60
42965;DHT22;28604;51.204;22.552;2023-05-17T02:54:25;15.40;91.60
42965;DHT22;28604;51.204;22.552;2023-05-17T02:56:51;15.40;91.80
42965;DHT22;28604;51.204;22.552;2023-05-17T02:59:17;15.40;91.60
42965;DHT22;28604;51.204;22.552;2023-05-17T03:01:43;15.30;91.80
42965;DHT22;28604;51.204;22.552;2023-05-17T03:04:09;15.40;91.80
42965;DHT22;28604;51.204;22.552;2023-05-17T03:06:36;15.30;91.90
42965;DHT22;28604;51.204;22.552;2023-05-17T03:09:02;15.30;91.90
42965;DHT22;28604;51.204;22.552;2023-05-17T03:11:28;15.20;92.00
42965;DHT22;28604;51.204;22.552;2023-05-17T03:13:56;15.20;92.30
42965;DHT22;28604;51.204;22.552;2023-05-17T03:16:25;15.20;91.90
42965;DHT22;28604;51.204;22.552;2023-05-17T03:18:51;15.20;92.10
42965;DHT22;28604;51.204;22.552;2023-05-17T03:21:19;15.20;92.20
42965;DHT22;28604;51.204;22.552;2023-05-17T03:23:46;15.20;91.90
42965;DHT22;28604;51.204;22.552;2023-05-17T03:26:11;15.20;92.00
42965;DHT22;28604;51.204;22.552;2023-05-17T03:28:45;15.20;92.30
42965;DHT22;28604;51.204;22.552;2023-05-17T03:31:12;15.10;92.30
42965;DHT22;28604;51.204;22.552;2023-05-17T03:33:39;15.10;92.40
42965;DHT22;28604;51.204;22.552;2023-05-17T03:36:05;15.10;92.30
42965;DHT22;28604;51.204;22.552;2023-05-17T03:38:32;15.10;92.10
42965;DHT22;28604;51.204;22.552;2023-05-17T03:40:58;15.10;92.30
42965;DHT22;28604;51.204;22.552;2023-05-17T03:43:24;15.20;92.20
42965;DHT22;28604;51.204;22.552;2023-05-17T03:45:50;15.20;92.10
42965;DHT22;28604;51.204;22.552;2023-05-17T03:48:17;15.20;92.30
42965;DHT22;28604;51.204;22.552;2023-05-17T03:50:43;15.20;92.20
42965;DHT22;28604;51.204;22.552;2023-05-17T03:53:11;15.20;92.20
42965;DHT22;28604;51.204;22.552;2023-05-17T03:55:38;15.20;92.30
42965;DHT22;28604;51.204;22.552;2023-05-17T03:58:04;15.20;92.10
42965;DHT22;28604;51.204;22.552;2023-05-17T04:00:30;15.30;92.20
42965;DHT22;28604;51.204;22.552;2023-05-17T04:03:01;15.30;92.30
42965;DHT22;28604;51.204;22.552;2023-05-17T04:05:27;15.30;92.30
42965;DHT22;28604;51.204;22.552;2023-05-17T04:07:54;15.30;92.30
42965;DHT22;28604;51.204;22.552;2023-05-17T04:10:20;15.30;92.30
42965;DHT22;28604;51.204;22.552;2023-05-17T04:12:46;15.30;92.20
42965;DHT22;28604;51.204;22.552;2023-05-17T04:15:12;15.30;92.20
42965;DHT22;28604;51.204;22.552;2023-05-17T04:17:40;15.40;92.30
42965;DHT22;28604;51.204;22.552;2023-05-17T04:20:06;15.40;92.10
42965;DHT22;28604;51.204;22.552;2023-05-17T04:22:33;15.40;92.00
42965;DHT22;28604;51.204;22.552;2023-05-17T04:24:59;15.50;92.10
42965;DHT22;28604;51.204;22.552;2023-05-17T04:27:26;15.50;92.10
42965;DHT22;28604;51.204;22.552;2023-05-17T04:29:53;15.50;92.00
42965;DHT22;28604;51.204;22.552;2023-05-17T04:32:19;15.50;92.20
42965;DHT22;28604;51.204;22.552;2023-05-17T04:34:47;15.60;91.80
42965;DHT22;28604;51.204;22.552;2023-05-17T04:37:13;15.60;91.90
42965;DHT22;28604;51.204;22.552;2023-05-17T04:39:40;15.60;91.90
42965;DHT22;28604;51.204;22.552;2023-05-17T04:42:07;15.70;91.90
42965;DHT22;28604;51.204;22.552;2023-05-17T04:44:37;15.70;91.80
42965;DHT22;28604;51.204;22.552;2023-05-17T04:47:03;15.70;91.80
42965;DHT22;28604;51.204;22.552;2023-05-17T04:49:29;15.80;91.80
42965;DHT22;28604;51.204;22.552;2023-05-17T04:51:57;15.90;91.70
42965;DHT22;28604;51.204;22.552;2023-05-17T04:54:23;16.00;91.80
42965;DHT22;28604;51.204;22.552;2023-05-17T04:56:49;16.10;92.00
42965;DHT22;28604;51.204;22.552;2023-05-17T04:59:29;16.20;91.90
42965;DHT22;28604;51.204;22.552;2023-05-17T05:01:55;16.20;91.50
42965;DHT22;28604;51.204;22.552;2023-05-17T05:04:22;16.30;91.50
42965;DHT22;28604;51.204;22.552;2023-05-17T05:06:50;16.30;91.50
42965;DHT22;28604;51.204;22.552;2023-05-17T05:09:17;16.40;91.50
42965;DHT22;28604;51.204;22.552;2023-05-17T05:11:44;16.50;91.60
42965;DHT22;28604;51.204;22.552;2023-05-17T05:14:10;16.50;91.60
42965;DHT22;28604;51.204;22.552;2023-05-17T05:16:36;16.60;91.40
42965;DHT22;28604;51.204;22.552;2023-05-17T05:19:02;16.60;91.70
42965;DHT22;28604;51.204;22.552;2023-05-17T05:21:29;16.70;91.60
42965;DHT22;28604;51.204;22.552;2023-05-17T05:23:56;16.70;91.50
42965;DHT22;28604;51.204;22.552;2023-05-17T05:26:22;16.80;91.40
42965;DHT22;28604;51.204;22.552;2023-05-17T05:28:49;16.90;91.30
42965;DHT22;28604;51.204;22.552;2023-05-17T05:31:15;16.90;90.90
42965;DHT22;28604;51.204;22.552;2023-05-17T05:33:47;17.10;90.90
42965;DHT22;28604;51.204;22.552;2023-05-17T05:36:14;17.10;90.90
42965;DHT22;28604;51.204;22.552;2023-05-17T05:38:40;17.20;90.80
42965;DHT22;28604;51.204;22.552;2023-05-17T05:41:06;17.20;90.70
42965;DHT22;28604;51.204;22.552;2023-05-17T05:43:32;17.30;90.60
42965;DHT22;28604;51.204;22.552;2023-05-17T05:46:00;17.30;90.40
42965;DHT22;28604;51.204;22.552;2023-05-17T05:48:27;17.40;90.40
42965;DHT22;28604;51.204;22.552;2023-05-17T05:50:52;17.40;90.50
42965;DHT22;28604;51.204;22.552;2023-05-17T05:53:18;17.40;90.50
42965;DHT22;28604;51.204;22.552;2023-05-17T05:55:48;17.40;90.30
42965;DHT22;28604;51.204;22.552;2023-05-17T05:58:14;17.40;90.40
42965;DHT22;28604;51.204;22.552;2023-05-17T06:00:40;17.50;90.50
42965;DHT22;28604;51.204;22.552;2023-05-17T06:03:07;17.60;90.10
42965;DHT22;28604;51.204;22.552;2023-05-17T06:05:32;17.50;90.10
42965;DHT22;28604;51.204;22.552;2023-05-17T06:07:58;17.60;90.00
42965;DHT22;28604;51.204;22.552;2023-05-17T06:10:24;17.70;90.30
42965;DHT22;28604;51.204;22.552;2023-05-17T06:12:53;17.80;90.20
42965;DHT22;28604;51.204;22.552;2023-05-17T06:15:19;17.80;90.10
42965;DHT22;28604;51.204;22.552;2023-05-17T06:17:45;17.90;90.00
42965;DHT22;28604;51.204;22.552;2023-05-17T06:20:11;17.90;89.80
42965;DHT22;28604;51.204;22.552;2023-05-17T06:22:37;18.00;89.90
42965;DHT22;28604;51.204;22.552;2023-05-17T06:25:04;18.10;90.00
42965;DHT22;28604;51.204;22.552;2023-05-17T06:27:30;18.10;89.80
42965;DHT22;28604;51.204;22.552;2023-05-17T06:29:58;18.10;89.90
42965;DHT22;28604;51.204;22.552;2023-05-17T06:32:24;18.20;89.40
42965;DHT22;28604;51.204;22.552;2023-05-17T06:34:50;18.20;89.10
42965;DHT22;28604;51.204;22.552;2023-05-17T06:37:16;18.20;89.20
42965;DHT22;28604;51.204;22.552;2023-05-17T06:39:42;18.20;88.90
42965;DHT22;28604;51.204;22.552;2023-05-17T06:42:08;18.30;88.40
42965;DHT22;28604;51.204;22.552;2023-05-17T06:44:35;18.30;88.30
42965;DHT22;28604;51.204;22.552;2023-05-17T06:47:01;18.30;88.30
42965;DHT22;28604;51.204;22.552;2023-05-17T06:49:27;18.30;88.10
42965;DHT22;28604;51.204;22.552;2023-05-17T06:51:53;18.40;88.00
42965;DHT22;28604;51.204;22.552;2023-05-17T06:54:20;18.40;87.70
42965;DHT22;28604;51.204;22.552;2023-05-17T06:56:46;18.40;87.70
42965;DHT22;28604;51.204;22.552;2023-05-17T06:59:12;18.40;87.90
42965;DHT22;28604;51.204;22.552;2023-05-17T07:01:38;18.40;88.60
42965;DHT22;28604;51.204;22.552;2023-05-17T07:04:04;18.40;87.60
42965;DHT22;28604;51.204;22.552;2023-05-17T07:06:30;18.40;88.10
42965;DHT22;28604;51.204;22.552;2023-05-17T07:08:56;18.40;87.80
42965;DHT22;28604;51.204;22.552;2023-05-17T07:11:22;18.50;87.60
42965;DHT22;28604;51.204;22.552;2023-05-17T07:13:48;18.50;88.90
42965;DHT22;28604;51.204;22.552;2023-05-17T07:16:14;18.40;89.40
42965;DHT22;28604;51.204;22.552;2023-05-17T07:18:40;18.50;89.50
42965;DHT22;28604;51.204;22.552;2023-05-17T07:21:06;18.70;89.30
42965;DHT22;28604;51.204;22.552;2023-05-17T07:23:32;18.60;90.10
42965;DHT22;28604;51.204;22.552;2023-05-17T07:25:58;18.70;90.60
42965;DHT22;28604;51.204;22.552;2023-05-17T07:28:23;18.80;90.50
42965;DHT22;28604;51.204;22.552;2023-05-17T07:30:49;18.90;90.30
42965;DHT22;28604;51.204;22.552;2023-05-17T07:33:15;19.00;90.10
42965;DHT22;28604;51.204;22.552;2023-05-17T07:35:41;19.00;90.00
42965;DHT22;28604;51.204;22.552;2023-05-17T07:38:08;19.10;89.20
42965;DHT22;28604;51.204;22.552;2023-05-17T07:40:35;19.00;89.90
42965;DHT22;28604;51.204;22.552;2023-05-17T07:43:01;19.10;90.00
42965;DHT22;28604;51.204;22.552;2023-05-17T07:45:27;19.20;90.40
42965;DHT22;28604;51.204;22.552;2023-05-17T07:47:53;19.30;90.10
42965;DHT22;28604;51.204;22.552;2023-05-17T07:50:19;19.30;89.20
42965;DHT22;28604;51.204;22.552;2023-05-17T07:52:45;19.30;88.90
42965;DHT22;28604;51.204;22.552;2023-05-17T07:55:11;19.40;88.80
42965;DHT22;28604;51.204;22.552;2023-05-17T07:57:36;19.40;88.50
42965;DHT22;28604;51.204;22.552;2023-05-17T08:00:03;19.50;87.80
42965;DHT22;28604;51.204;22.552;2023-05-17T08:02:38;19.50;87.60
42965;DHT22;28604;51.204;22.552;2023-05-17T08:05:04;19.70;88.00
42965;DHT22;28604;51.204;22.552;2023-05-17T08:07:30;19.80;87.60
42965;DHT22;28604;51.204;22.552;2023-05-17T08:09:56;19.80;86.90
42965;DHT22;28604;51.204;22.552;2023-05-17T08:12:22;20.00;86.10
42965;DHT22;28604;51.204;22.552;2023-05-17T08:14:48;19.90;85.60
42965;DHT22;28604;51.204;22.552;2023-05-17T08:17:14;20.00;85.90
42965;DHT22;28604;51.204;22.552;2023-05-17T08:19:40;20.00;85.50
42965;DHT22;28604;51.204;22.552;2023-05-17T08:22:05;20.00;85.40
42965;DHT22;28604;51.204;22.552;2023-05-17T08:24:31;20.00;86.00
42965;DHT22;28604;51.204;22.552;2023-05-17T08:26:57;20.00;85.90
42965;DHT22;28604;51.204;22.552;2023-05-17T08:29:23;20.00;85.90
42965;DHT22;28604;51.204;22.552;2023-05-17T08:31:49;19.90;86.00
42965;DHT22;28604;51.204;22.552;2023-05-17T08:34:16;19.90;85.20
42965;DHT22;28604;51.204;22.552;2023-05-17T08:36:42;19.90;85.40
42965;DHT22;28604;51.204;22.552;2023-05-17T08:39:09;19.90;85.30
42965;DHT22;28604;51.204;22.552;2023-05-17T08:41:35;19.90;85.80
42965;DHT22;28604;51.204;22.552;2023-05-17T08:44:01;19.90;84.90
42965;DHT22;28604;51.204;22.552;2023-05-17T08:46:28;19.90;84.70
42965;DHT22;28604;51.204;22.552;2023-05-17T08:48:57;19.80;84.40
42965;DHT22;28604;51.204;22.552;2023-05-17T08:51:27;19.80;84.50
42965;DHT22;28604;51.204;22.552;2023-05-17T08:53:57;19.80;84.60
42965;DHT22;28604;51.204;22.552;2023-05-17T08:56:25;19.70;84.50
42965;DHT22;28604;51.204;22.552;2023-05-17T08:58:54;19.70;84.60
42965;DHT22;28604;51.204;22.552;2023-05-17T09:01:23;19.60;84.30
42965;DHT22;28604;51.204;22.552;2023-05-17T09:03:49;19.50;84.80
42965;DHT22;28604;51.204;22.552;2023-05-17T09:06:16;19.50;84.30
42965;DHT22;28604;51.204;22.552;2023-05-17T09:08:45;19.40;84.80
42965;DHT22;28604;51.204;22.552;2023-05-17T09:11:12;19.40;85.20
42965;DHT22;28604;51.204;22.552;2023-05-17T09:13:42;19.40;85.20
42965;DHT22;28604;51.204;22.552;2023-05-17T09:16:15;19.50;85.10
42965;DHT22;28604;51.204;22.552;2023-05-17T09:18:41;19.40;84.90
42965;DHT22;28604;51.204;22.552;2023-05-17T09:21:07;19.30;85.20
42965;DHT22;28604;51.204;22.552;2023-05-17T09:23:37;19.30;85.70
42965;DHT22;28604;51.204;22.552;2023-05-17T09:26:06;19.40;86.60
42965;DHT22;28604;51.204;22.552;2023-05-17T09:28:39;19.30;86.20
42965;DHT22;28604;51.204;22.552;2023-05-17T09:31:06;19.30;86.60
42965;DHT22;28604;51.204;22.552;2023-05-17T09:33:34;19.30;86.50
42965;DHT22;28604;51.204;22.552;2023-05-17T09:36:15;19.40;86.50
42965;DHT22;28604;51.204;22.552;2023-05-17T09:38:42;19.40;86.50
42965;DHT22;28604;51.204;22.552;2023-05-17T09:41:08;19.40;86.30
42965;DHT22;28604;51.204;22.552;2023-05-17T09:43:34;19.50;86.20
42965;DHT22;28604;51.204;22.552;2023-05-17T09:46:00;19.40;85.90
42965;DHT22;28604;51.204;22.552;2023-05-17T09:48:26;19.40;86.00
42965;DHT22;28604;51.204;22.552;2023-05-17T09:50:55;19.30;85.70
42965;DHT22;28604;51.204;22.552;2023-05-17T09:53:33;19.30;85.70
42965;DHT22;28604;51.204;22.552;2023-05-17T09:56:08;19.30;86.10
42965;DHT22;28604;51.204;22.552;2023-05-17T09:58:37;19.20;86.20
42965;DHT22;28604;51.204;22.552;2023-05-17T10:01:05;19.20;86.20
42965;DHT22;28604;51.204;22.552;2023-05-17T10:03:34;19.10;86.90
42965;DHT22;28604;51.204;22.552;2023-05-17T10:06:02;19.10;86.30
42965;DHT22;28604;51.204;22.552;2023-05-17T10:08:31;19.00;86.60
42965;DHT22;28604;51.204;22.552;2023-05-17T10:11:06;18.90;86.70
42965;DHT22;28604;51.204;22.552;2023-05-17T10:13:46;19.00;86.80
42965;DHT22;28604;51.204;22.552;2023-05-17T10:16:14;18.90;87.10
42965;DHT22;28604;51.204;22.552;2023-05-17T10:18:41;18.90;87.30
42965;DHT22;28604;51.204;22.552;2023-05-17T10:21:07;18.80;87.10
42965;DHT22;28604;51.204;22.552;2023-05-17T10:23:34;18.70;87.40
42965;DHT22;28604;51.204;22.552;2023-05-17T10:26:01;18.70;88.00
42965;DHT22;28604;51.204;22.552;2023-05-17T10:28:29;18.60;87.50
42965;DHT22;28604;51.204;22.552;2023-05-17T10:30:56;18.60;87.40
42965;DHT22;28604;51.204;22.552;2023-05-17T10:33:25;18.70;87.30
42965;DHT22;28604;51.204;22.552;2023-05-17T10:35:52;18.60;87.50
42965;DHT22;28604;51.204;22.552;2023-05-17T10:38:19;18.60;87.50
42965;DHT22;28604;51.204;22.552;2023-05-17T10:40:46;18.60;87.70
42965;DHT22;28604;51.204;22.552;2023-05-17T10:43:14;18.60;87.70
42965;DHT22;28604;51.204;22.552;2023-05-17T10:45:40;18.50;87.90
42965;DHT22;28604;51.204;22.552;2023-05-17T10:48:07;18.40;87.80
42965;DHT22;28604;51.204;22.552;2023-05-17T10:50:37;18.40;88.00
42965;DHT22;28604;51.204;22.552;2023-05-17T10:53:08;18.40;88.10
42965;DHT22;28604;51.204;22.552;2023-05-17T10:55:40;18.40;88.00
42965;DHT22;28604;51.204;22.552;2023-05-17T11:00:50;18.30;87.80
42965;DHT22;28604;51.204;22.552;2023-05-17T11:03:25;18.30;87.70
42965;DHT22;28604;51.204;22.552;2023-05-17T11:06:16;18.30;88.00
42965;DHT22;28604;51.204;22.552;2023-05-17T11:09:12;18.20;87.60
42965;DHT22;28604;51.204;22.552;2023-05-17T11:12:02;18.10;88.20
42965;DHT22;28604;51.204;22.552;2023-05-17T11:17:23;18.00;90.00
42965;DHT22;28604;51.204;22.552;2023-05-17T11:20:01;17.90;90.00
42965;DHT22;28604;51.204;22.552;2023-05-17T11:22:34;17.80;90.50
42965;DHT22;28604;51.204;22.552;2023-05-17T11:25:05;17.70;90.20
42965;DHT22;28604;51.204;22.552;2023-05-17T11:27:45;17.70;90.00
42965;DHT22;28604;51.204;22.552;2023-05-17T11:30:27;17.70;90.20
42965;DHT22;28604;51.204;22.552;2023-05-17T11:33:02;17.50;90.60
42965;DHT22;28604;51.204;22.552;2023-05-17T11:35:32;17.50;90.70
42965;DHT22;28604;51.204;22.552;2023-05-17T11:38:16;17.50;90.80
42965;DHT22;28604;51.204;22.552;2023-05-17T11:40:52;17.50;90.60
42965;DHT22;28604;51.204;22.552;2023-05-17T11:43:19;17.40;90.90
42965;DHT22;28604;51.204;22.552;2023-05-17T11:48:16;17.40;90.70
42965;DHT22;28604;51.204;22.552;2023-05-17T11:50:44;17.30;91.20
42965;DHT22;28604;51.204;22.552;2023-05-17T11:53:11;17.30;90.70
42965;DHT22;28604;51.204;22.552;2023-05-17T11:58:07;17.30;90.40
42965;DHT22;28604;51.204;22.552;2023-05-17T12:00:35;17.20;90.50
42965;DHT22;28604;51.204;22.552;2023-05-17T12:03:18;17.10;90.50
42965;DHT22;28604;51.204;22.552;2023-05-17T12:05:46;17.10;90.60
42965;DHT22;28604;51.204;22.552;2023-05-17T12:08:17;17.00;90.60
42965;DHT22;28604;51.204;22.552;2023-05-17T12:10:45;17.00;90.50
42965;DHT22;28604;51.204;22.552;2023-05-17T12:13:11;17.00;90.60
42965;DHT22;28604;51.204;22.552;2023-05-17T12:15:37;16.80;90.80
42965;DHT22;28604;51.204;22.552;2023-05-17T12:18:03;16.90;90.60
42965;DHT22;28604;51.204;22.552;2023-05-17T12:20:29;16.90;90.50
42965;DHT22;28604;51.204;22.552;2023-05-17T12:22:57;16.80;90.60
42965;DHT22;28604;51.204;22.552;2023-05-17T12:25:23;16.60;90.60
42965;DHT22;28604;51.204;22.552;2023-05-17T12:27:51;16.60;90.60
42965;DHT22;28604;51.204;22.552;2023-05-17T12:30:18;16.50;90.50
42965;DHT22;28604;51.204;22.552;2023-05-17T12:32:44;16.50;90.50
42965;DHT22;28604;51.204;22.552;2023-05-17T12:35:11;16.40;90.80
42965;DHT22;28604;51.204;22.552;2023-05-17T12:37:38;16.40;90.60
42965;DHT22;28604;51.204;22.552;2023-05-17T12:40:05;16.40;91.00
42965;DHT22;28604;51.204;22.552;2023-05-17T12:42:31;16.30;91.00
42965;DHT22;28604;51.204;22.552;2023-05-17T12:45:00;16.30;91.20
42965;DHT22;28604;51.204;22.552;2023-05-17T12:47:32;16.30;90.90
42965;DHT22;28604;51.204;22.552;2023-05-17T12:49:59;16.20;91.10
42965;DHT22;28604;51.204;22.552;2023-05-17T12:52:32;16.20;91.20
42965;DHT22;28604;51.204;22.552;2023-05-17T12:55:02;16.20;91.10
42965;DHT22;28604;51.204;22.552;2023-05-17T12:57:28;16.20;91.20
42965;DHT22;28604;51.204;22.552;2023-05-17T12:59:55;16.10;91.40
42965;DHT22;28604;51.204;22.552;2023-05-17T13:02:21;16.10;91.50
42965;DHT22;28604;51.204;22.552;2023-05-17T13:04:48;16.10;91.70
42965;DHT22;28604;51.204;22.552;2023-05-17T13:07:21;16.10;91.60
42965;DHT22;28604;51.204;22.552;2023-05-17T13:09:51;16.10;91.70
42965;DHT22;28604;51.204;22.552;2023-05-17T13:12:22;16.20;91.70
42965;DHT22;28604;51.204;22.552;2023-05-17T13:14:50;16.20;91.80
42965;DHT22;28604;51.204;22.552;2023-05-17T13:17:35;16.10;92.00
42965;DHT22;28604;51.204;22.552;2023-05-17T13:20:06;16.10;91.60
42965;DHT22;28604;51.204;22.552;2023-05-17T13:22:32;16.20;91.60
42965;DHT22;28604;51.204;22.552;2023-05-17T13:24:59;16.20;91.70
42965;DHT22;28604;51.204;22.552;2023-05-17T13:27:24;16.20;91.70
42965;DHT22;28604;51.204;22.552;2023-05-17T13:29:50;16.10;91.50
42965;DHT22;28604;51.204;22.552;2023-05-17T13:32:16;16.10;91.60
42965;DHT22;28604;51.204;22.552;2023-05-17T13:34:43;16.10;91.70
42965;DHT22;28604;51.204;22.552;2023-05-17T13:37:09;16.00;91.50
42965;DHT22;28604;51.204;22.552;2023-05-17T13:39:35;15.90;91.70
42965;DHT22;28604;51.204;22.552;2023-05-17T13:42:01;15.90;91.50
42965;DHT22;28604;51.204;22.552;2023-05-17T13:44:28;15.80;91.40
42965;DHT22;28604;51.204;22.552;2023-05-17T13:46:54;15.90;91.60
42965;DHT22;28604;51.204;22.552;2023-05-17T13:49:20;15.90;91.60
42965;DHT22;28604;51.204;22.552;2023-05-17T13:51:46;15.90;91.50
42965;DHT22;28604;51.204;22.552;2023-05-17T13:54:12;15.90;91.40
42965;DHT22;28604;51.204;22.552;2023-05-17T13:56:38;15.90;91.40
42965;DHT22;28604;51.204;22.552;2023-05-17T13:59:04;15.80;91.50
42965;DHT22;28604;51.204;22.552;2023-05-17T14:01:30;15.90;91.60
42965;DHT22;28604;51.204;22.552;2023-05-17T14:03:56;15.70;91.70
42965;DHT22;28604;51.204;22.552;2023-05-17T14:06:22;15.70;91.60
42965;DHT22;28604;51.204;22.552;2023-05-17T14:08:48;15.60;91.80
42965;DHT22;28604;51.204;22.552;2023-05-17T14:11:14;15.50;92.10
42965;DHT22;28604;51.204;22.552;2023-05-17T14:13:40;15.50;92.00
42965;DHT22;28604;51.204;22.552;2023-05-17T14:16:06;15.50;91.90
42965;DHT22;28604;51.204;22.552;2023-05-17T14:18:32;15.50;92.10
42965;DHT22;28604;51.204;22.552;2023-05-17T14:20:58;15.50;92.00
42965;DHT22;28604;51.204;22.552;2023-05-17T14:23:25;15.50;91.90
42965;DHT22;28604;51.204;22.552;2023-05-17T14:25:51;15.60;92.20
42965;DHT22;28604;51.204;22.552;2023-05-17T14:28:17;15.50;92.00
42965;DHT22;28604;51.204;22.552;2023-05-17T14:30:43;15.50;92.10
42965;DHT22;28604;51.204;22.552;2023-05-17T14:33:10;15.50;92.10
42965;DHT22;28604;51.204;22.552;2023-05-17T14:35:36;15.50;91.90
42965;DHT22;28604;51.204;22.552;2023-05-17T14:38:02;15.50;91.90
42965;DHT22;28604;51.204;22.552;2023-05-17T14:40:28;15.50;91.90
42965;DHT22;28604;51.204;22.552;2023-05-17T14:42:54;15.60;92.00
42965;DHT22;28604;51.204;22.552;2023-05-17T14:45:20;15.60;91.80
42965;DHT22;28604;51.204;22.552;2023-05-17T14:47:46;15.60;91.80
42965;DHT22;28604;51.204;22.552;2023-05-17T14:50:12;15.60;91.60
42965;DHT22;28604;51.204;22.552;2023-05-17T14:52:38;15.60;91.70
42965;DHT22;28604;51.204;22.552;2023-05-17T14:55:04;15.50;91.70
42965;DHT22;28604;51.204;22.552;2023-05-17T14:57:32;15.50;91.80
42965;DHT22;28604;51.204;22.552;2023-05-17T14:59:58;15.60;91.90
42965;DHT22;28604;51.204;22.552;2023-05-17T15:02:25;15.50;92.00
42965;DHT22;28604;51.204;22.552;2023-05-17T15:04:51;15.50;92.10
42965;DHT22;28604;51.204;22.552;2023-05-17T15:07:17;15.40;92.20
42965;DHT22;28604;51.204;22.552;2023-05-17T15:09:43;15.40;92.00
42965;DHT22;28604;51.204;22.552;2023-05-17T15:12:10;15.40;92.10
42965;DHT22;28604;51.204;22.552;2023-05-17T15:14:37;15.40;92.00
42965;DHT22;28604;51.204;22.552;2023-05-17T15:17:03;15.40;92.10
42965;DHT22;28604;51.204;22.552;2023-05-17T15:19:30;15.40;92.00
42965;DHT22;28604;51.204;22.552;2023-05-17T15:21:56;15.40;92.10
42965;DHT22;28604;51.204;22.552;2023-05-17T15:24:22;15.40;92.10
42965;DHT22;28604;51.204;22.552;2023-05-17T15:26:48;15.40;92.10
42965;DHT22;28604;51.204;22.552;2023-05-17T15:29:14;15.30;92.10
42965;DHT22;28604;51.204;22.552;2023-05-17T15:31:41;15.30;92.00
42965;DHT22;28604;51.204;22.552;2023-05-17T15:34:06;15.30;92.10
42965;DHT22;28604;51.204;22.552;2023-05-17T15:36:33;15.20;92.20
42965;DHT22;28604;51.204;22.552;2023-05-17T15:39:01;15.20;92.20
42965;DHT22;28604;51.204;22.552;2023-05-17T15:41:29;15.30;91.90
42965;DHT22;28604;51.204;22.552;2023-05-17T15:43:55;15.20;92.00